createdAt,value
2023-05-07T00:00:38.081Z,1.00
2023-05-07T00:01:39.944Z,0.93
2023-05-07T00:02:42.802Z,0.90
2023-05-07T00:03:49.236Z,0.98
2023-05-07T00:04:53.056Z,1.00
2023-05-07T00:05:54.835Z,1.00
2023-05-07T00:07:00.490Z,1.00
2023-05-07T00:08:02.246Z,0.95
2023-05-07T00:09:05.409Z,0.88
2023-05-07T00:10:08.447Z,0.80
2023-05-07T00:11:14.019Z,1.17
2023-05-07T00:12:15.666Z,0.93
2023-05-07T00:13:18.444Z,0.80
2023-05-07T00:14:20.224Z,0.82
2023-05-07T00:15:23.289Z,0.80
2023-05-07T00:16:25.034Z,0.93
2023-05-07T00:17:27.862Z,1.00
2023-05-07T00:18:29.639Z,1.20
2023-05-07T00:19:34.025Z,1.20
2023-05-07T00:20:36.339Z,1.05
2023-05-07T00:21:39.461Z,1.20
2023-05-07T00:22:41.159Z,1.10
2023-05-07T00:23:43.862Z,1.05
2023-05-07T00:24:45.784Z,0.98
2023-05-07T00:25:48.538Z,1.27
2023-05-07T00:26:50.282Z,1.08
2023-05-07T00:27:53.002Z,1.02
2023-05-07T00:28:54.685Z,1.10
2023-05-07T00:29:57.398Z,1.20
2023-05-07T00:30:59.135Z,1.27
2023-05-07T00:32:01.913Z,0.93
2023-05-07T00:33:03.742Z,1.20
2023-05-07T00:34:06.857Z,0.98
2023-05-07T00:35:10.493Z,1.05
2023-05-07T00:36:13.391Z,1.10
2023-05-07T00:37:15.103Z,1.02
2023-05-07T00:38:17.778Z,0.95
2023-05-07T00:39:19.575Z,1.35
2023-05-07T00:40:22.265Z,1.10
2023-05-07T00:41:23.958Z,1.20
2023-05-07T00:42:26.718Z,1.20
2023-05-07T00:43:28.576Z,1.00
2023-05-07T00:44:31.722Z,1.20
2023-05-07T00:45:34.193Z,1.23
2023-05-07T00:46:37.122Z,1.10
2023-05-07T00:47:38.986Z,1.00
2023-05-07T00:48:42.125Z,0.93
2023-05-07T00:49:44.890Z,0.98
2023-05-07T00:50:49.345Z,1.15
2023-05-07T00:51:51.164Z,1.02
2023-05-07T00:52:53.902Z,1.08
2023-05-07T00:53:55.872Z,1.20
2023-05-07T00:54:58.621Z,1.10
2023-05-07T00:56:01.846Z,1.00
2023-05-07T00:57:05.304Z,1.00
2023-05-07T00:58:07.664Z,1.00
2023-05-07T00:59:10.445Z,1.20
2023-05-07T01:00:14.109Z,0.95
2023-05-07T01:01:20.592Z,1.17
2023-05-07T01:02:22.735Z,0.95
2023-05-07T01:03:25.501Z,0.98
2023-05-07T01:04:28.040Z,1.10
2023-05-07T01:05:32.288Z,1.17
2023-05-07T01:06:35.893Z,1.08
2023-05-07T01:07:40.795Z,1.02
2023-05-07T01:08:42.605Z,1.10
2023-05-07T01:09:45.726Z,1.30
2023-05-07T01:11:01.771Z,1.10
2023-05-07T01:12:05.557Z,1.00
2023-05-07T01:13:08.125Z,1.10
2023-05-07T01:14:11.626Z,1.13
2023-05-07T01:15:13.323Z,1.15
2023-05-07T01:16:15.983Z,1.25
2023-05-07T01:17:17.829Z,1.00
2023-05-07T01:18:20.549Z,0.88
2023-05-07T01:19:22.318Z,1.10
2023-05-07T01:20:25.282Z,1.10
2023-05-07T01:21:27.887Z,1.20
2023-05-07T01:22:34.055Z,0.90
2023-05-07T01:23:36.736Z,1.20
2023-05-07T01:24:39.915Z,1.23
2023-05-07T01:25:41.631Z,1.20
2023-05-07T01:26:44.653Z,1.13
2023-05-07T01:27:46.890Z,1.00
2023-05-07T01:28:49.549Z,1.23
2023-05-07T01:29:51.282Z,1.20
2023-05-07T01:30:56.505Z,1.25
2023-05-07T01:31:58.955Z,1.40
2023-05-07T01:33:05.103Z,1.48
2023-05-07T01:34:08.207Z,1.10
2023-05-07T01:35:13.583Z,1.15
2023-05-07T01:36:15.626Z,1.02
2023-05-07T01:37:18.653Z,1.20
2023-05-07T01:38:23.079Z,1.10
2023-05-07T01:39:27.130Z,1.33
2023-05-07T01:40:28.953Z,1.10
2023-05-07T01:41:31.675Z,1.38
2023-05-07T01:42:33.409Z,1.00
2023-05-07T01:43:36.209Z,1.30
2023-05-07T01:44:37.908Z,1.20
2023-05-07T01:45:40.949Z,1.23
2023-05-07T01:46:42.678Z,1.00
2023-05-07T01:47:46.079Z,1.25
2023-05-07T01:48:48.202Z,1.10
2023-05-07T01:49:50.990Z,1.08
2023-05-07T01:50:52.711Z,1.30
2023-05-07T01:51:56.161Z,1.13
2023-05-07T01:52:57.929Z,1.42
2023-05-07T01:54:02.217Z,1.10
2023-05-07T01:55:04.550Z,1.00
2023-05-07T01:56:07.819Z,1.30
2023-05-07T01:57:09.766Z,1.05
2023-05-07T01:58:12.836Z,1.15
2023-05-07T01:59:14.664Z,1.20
2023-05-07T02:00:18.535Z,1.15
2023-05-07T02:01:20.259Z,1.10
2023-05-07T02:02:23.440Z,1.15
2023-05-07T02:03:25.321Z,1.17
2023-05-07T02:04:28.028Z,1.25
2023-05-07T02:05:29.802Z,1.10
2023-05-07T02:06:32.829Z,1.02
2023-05-07T02:07:34.477Z,1.23
2023-05-07T02:08:37.242Z,1.00
2023-05-07T02:09:40.323Z,1.23
2023-05-07T02:10:43.052Z,1.40
2023-05-07T02:11:44.718Z,1.40
2023-05-07T02:12:47.499Z,1.42
2023-05-07T02:13:49.283Z,1.35
2023-05-07T02:14:52.133Z,1.80
2023-05-07T02:15:54.697Z,1.30
2023-05-07T02:16:57.455Z,1.60
2023-05-07T02:18:00.128Z,1.45
2023-05-07T02:19:03.169Z,1.40
2023-05-07T02:20:05.964Z,1.65
2023-05-07T02:21:08.685Z,1.25
2023-05-07T02:22:11.206Z,1.67
2023-05-07T02:23:13.878Z,1.20
2023-05-07T02:24:15.715Z,1.50
2023-05-07T02:25:19.734Z,1.80
2023-05-07T02:26:22.565Z,1.27
2023-05-07T02:27:25.337Z,1.30
2023-05-07T02:28:27.355Z,1.25
2023-05-07T02:29:30.089Z,1.60
2023-05-07T02:30:31.751Z,1.30
2023-05-07T02:31:35.431Z,1.35
2023-05-07T02:32:37.259Z,1.70
2023-05-07T02:33:39.987Z,1.38
2023-05-07T02:34:41.691Z,1.58
2023-05-07T02:35:44.380Z,1.50
2023-05-07T02:36:46.605Z,1.25
2023-05-07T02:37:49.338Z,1.38
2023-05-07T02:38:51.092Z,1.67
2023-05-07T02:39:53.809Z,1.30
2023-05-07T02:40:56.825Z,1.70
2023-05-07T02:41:59.532Z,1.60
2023-05-07T02:43:01.266Z,1.60
2023-05-07T02:44:03.988Z,1.40
2023-05-07T02:45:06.798Z,1.50
2023-05-07T02:46:10.678Z,1.40
2023-05-07T02:47:14.050Z,1.42
2023-05-07T02:48:16.751Z,1.52
2023-05-07T02:49:18.488Z,1.40
2023-05-07T02:50:21.165Z,1.48
2023-05-07T02:51:25.509Z,1.40
2023-05-07T02:52:28.889Z,1.40
2023-05-07T02:53:30.765Z,1.80
2023-05-07T02:54:33.478Z,1.75
2023-05-07T02:55:35.143Z,1.35
2023-05-07T02:56:39.258Z,1.70
2023-05-07T02:57:40.999Z,1.52
2023-05-07T02:58:43.966Z,1.55
2023-05-07T02:59:45.670Z,1.27
2023-05-07T03:00:48.377Z,1.60
2023-05-07T03:01:50.191Z,1.60
2023-05-07T03:02:53.068Z,1.40
2023-05-07T03:03:55.332Z,1.60
2023-05-07T03:04:58.081Z,1.55
2023-05-07T03:05:59.795Z,1.73
2023-05-07T03:07:02.593Z,1.30
2023-05-07T03:08:05.006Z,1.33
2023-05-07T03:09:07.787Z,1.50
2023-05-07T03:10:10.289Z,1.48
2023-05-07T03:11:13.157Z,1.70
2023-05-07T03:12:16.663Z,1.52
2023-05-07T03:13:19.715Z,1.50
2023-05-07T03:14:21.538Z,1.85
2023-05-07T03:15:24.247Z,1.58
2023-05-07T03:16:26.923Z,1.80
2023-05-07T03:17:29.770Z,1.60
2023-05-07T03:18:31.477Z,1.90
2023-05-07T03:19:34.169Z,1.70
2023-05-07T03:20:37.395Z,1.70
2023-05-07T03:21:40.183Z,1.70
2023-05-07T03:22:41.924Z,1.73
2023-05-07T03:23:44.574Z,1.73
2023-05-07T03:24:46.278Z,1.80
2023-05-07T03:25:53.206Z,1.60
2023-05-07T03:26:55.902Z,2.00
2023-05-07T03:27:59.023Z,1.70
2023-05-07T03:29:01.736Z,1.55
2023-05-07T03:30:04.040Z,1.60
2023-05-07T03:31:06.805Z,1.50
2023-05-07T03:32:08.581Z,1.77
2023-05-07T03:33:11.252Z,1.90
2023-05-07T03:34:13.010Z,1.55
2023-05-07T03:35:15.982Z,1.60
2023-05-07T03:36:18.881Z,1.50
2023-05-07T03:37:20.710Z,1.90
2023-05-07T03:38:23.484Z,1.60
2023-05-07T03:39:25.213Z,1.67
2023-05-07T03:40:28.051Z,1.58
2023-05-07T03:41:30.735Z,1.80
2023-05-07T03:42:33.460Z,1.60
2023-05-07T03:43:36.569Z,1.67
2023-05-07T03:44:39.323Z,1.30
2023-05-07T03:45:41.105Z,1.80
2023-05-07T03:46:43.966Z,1.67
2023-05-07T03:47:45.753Z,1.50
2023-05-07T03:48:48.460Z,1.60
2023-05-07T03:49:51.355Z,1.65
2023-05-07T03:50:54.099Z,1.67
2023-05-07T03:51:56.840Z,1.40
2023-05-07T03:52:59.546Z,1.58
2023-05-07T03:54:01.398Z,1.15
2023-05-07T03:55:04.225Z,1.52
2023-05-07T03:56:06.281Z,1.83
2023-05-07T03:57:08.981Z,1.88
2023-05-07T03:58:10.778Z,1.52
2023-05-07T03:59:15.388Z,1.50
2023-05-07T04:00:17.517Z,1.50
2023-05-07T04:01:20.321Z,1.80
2023-05-07T04:02:22.411Z,1.48
2023-05-07T04:03:25.220Z,1.50
2023-05-07T04:04:27.094Z,1.60
2023-05-07T04:05:29.969Z,1.63
2023-05-07T04:06:32.050Z,1.70
2023-05-07T04:07:34.764Z,1.50
2023-05-07T04:08:36.557Z,1.63
2023-05-07T04:09:39.314Z,1.58
2023-05-07T04:10:41.068Z,1.70
2023-05-07T04:11:43.792Z,1.45
2023-05-07T04:12:45.583Z,1.40
2023-05-07T04:13:48.360Z,1.30
2023-05-07T04:14:51.475Z,1.60
2023-05-07T04:15:54.508Z,1.40
2023-05-07T04:16:56.321Z,1.52
2023-05-07T04:17:59.160Z,1.55
2023-05-07T04:19:00.922Z,1.60
2023-05-07T04:20:03.760Z,1.40
2023-05-07T04:21:05.596Z,1.52
2023-05-07T04:22:08.380Z,1.60
2023-05-07T04:23:10.098Z,1.33
2023-05-07T04:24:12.806Z,1.20
2023-05-07T04:25:14.789Z,1.25
2023-05-07T04:26:18.006Z,1.60
2023-05-07T04:27:19.737Z,1.38
2023-05-07T04:28:22.566Z,1.40
2023-05-07T04:29:24.235Z,1.20
2023-05-07T04:30:28.337Z,1.63
2023-05-07T04:31:30.121Z,1.60
2023-05-07T04:32:32.902Z,1.50
2023-05-07T04:33:34.969Z,1.55
2023-05-07T04:34:37.644Z,1.50
2023-05-07T04:35:39.350Z,1.52
2023-05-07T04:36:42.476Z,1.15
2023-05-07T04:37:44.229Z,1.23
2023-05-07T04:38:46.972Z,1.15
2023-05-07T04:39:48.651Z,1.40
2023-05-07T04:40:51.539Z,1.40
2023-05-07T04:41:53.322Z,1.30
2023-05-07T04:42:56.134Z,1.35
2023-05-07T04:43:59.852Z,1.58
2023-05-07T04:45:03.092Z,1.58
2023-05-07T04:46:06.297Z,1.25
2023-05-07T04:47:09.118Z,1.30
2023-05-07T04:48:10.857Z,1.35
2023-05-07T04:49:13.679Z,1.58
2023-05-07T04:50:15.371Z,1.42
2023-05-07T04:51:18.159Z,1.63
2023-05-07T04:52:19.910Z,1.48
2023-05-07T04:53:23.387Z,1.77
2023-05-07T04:54:25.127Z,1.60
2023-05-07T04:55:27.792Z,1.50
2023-05-07T04:56:30.092Z,1.45
2023-05-07T04:57:32.752Z,1.38
2023-05-07T04:58:34.440Z,1.50
2023-05-07T04:59:37.107Z,1.60
2023-05-07T05:00:39.746Z,1.60
2023-05-07T05:01:43.891Z,1.45
2023-05-07T05:02:46.277Z,1.70
2023-05-07T05:03:49.009Z,1.27
2023-05-07T05:04:50.727Z,1.20
2023-05-07T05:05:53.758Z,1.40
2023-05-07T05:06:55.595Z,1.48
2023-05-07T05:07:58.302Z,1.35
2023-05-07T05:08:59.974Z,1.40
2023-05-07T05:10:04.775Z,1.27
2023-05-07T05:11:06.576Z,1.40
2023-05-07T05:12:10.316Z,1.20
2023-05-07T05:13:13.882Z,1.40
2023-05-07T05:14:16.757Z,1.10
2023-05-07T05:15:18.420Z,1.30
2023-05-07T05:16:21.258Z,1.40
2023-05-07T05:17:24.474Z,1.10
2023-05-07T05:18:27.236Z,1.40
2023-05-07T05:19:28.961Z,1.50
2023-05-07T05:20:31.746Z,1.42
2023-05-07T05:21:33.491Z,1.30
2023-05-07T05:22:36.289Z,1.20
2023-05-07T05:23:38.031Z,1.10
2023-05-07T05:24:40.691Z,1.40
2023-05-07T05:25:42.392Z,1.10
2023-05-07T05:26:45.013Z,1.20
2023-05-07T05:27:46.798Z,1.00
2023-05-07T05:28:49.480Z,1.25
2023-05-07T05:29:51.188Z,1.50
2023-05-07T05:30:54.065Z,1.35
2023-05-07T05:31:56.632Z,1.45
2023-05-07T05:33:01.070Z,1.45
2023-05-07T05:34:03.501Z,1.20
2023-05-07T05:35:07.057Z,1.17
2023-05-07T05:36:12.328Z,1.40
2023-05-07T05:37:14.987Z,1.25
2023-05-07T05:38:16.725Z,1.23
2023-05-07T05:39:19.760Z,1.50
2023-05-07T05:40:21.534Z,1.27
2023-05-07T05:41:24.261Z,1.40
2023-05-07T05:42:26.012Z,1.35
2023-05-07T05:43:28.708Z,1.10
2023-05-07T05:44:30.403Z,1.23
2023-05-07T05:45:33.123Z,1.17
2023-05-07T05:46:36.991Z,1.48
2023-05-07T05:47:40.431Z,1.65
2023-05-07T05:48:43.605Z,1.33
2023-05-07T05:49:46.261Z,1.15
2023-05-07T05:50:47.962Z,1.38
2023-05-07T05:51:50.752Z,1.25
2023-05-07T05:52:53.440Z,1.20
2023-05-07T05:53:55.133Z,1.27
2023-05-07T05:54:57.841Z,1.30
2023-05-07T05:55:59.609Z,1.20
2023-05-07T05:57:05.053Z,1.23
2023-05-07T05:58:06.774Z,1.00
2023-05-07T05:59:09.617Z,1.40
2023-05-07T06:00:12.773Z,1.20
2023-05-07T06:01:15.778Z,1.30
2023-05-07T06:02:17.594Z,1.38
2023-05-07T06:03:20.410Z,1.15
2023-05-07T06:04:23.464Z,1.38
2023-05-07T06:05:26.284Z,1.23
2023-05-07T06:06:28.346Z,1.25
2023-05-07T06:07:31.024Z,1.20
2023-05-07T06:08:32.724Z,1.40
2023-05-07T06:09:35.430Z,1.10
2023-05-07T06:10:37.298Z,1.15
2023-05-07T06:11:40.647Z,1.40
2023-05-07T06:12:42.439Z,1.45
2023-05-07T06:13:45.165Z,1.38
2023-05-07T06:14:46.913Z,1.50
2023-05-07T06:15:49.574Z,1.55
2023-05-07T06:16:51.308Z,1.50
2023-05-07T06:17:54.152Z,1.20
2023-05-07T06:18:55.919Z,1.45
2023-05-07T06:19:59.962Z,1.70
2023-05-07T06:21:02.664Z,1.23
2023-05-07T06:22:04.408Z,1.35
2023-05-07T06:23:07.048Z,1.27
2023-05-07T06:24:09.031Z,1.40
2023-05-07T06:25:12.957Z,1.38
2023-05-07T06:26:14.612Z,1.40
2023-05-07T06:27:17.252Z,1.30
2023-05-07T06:28:19.029Z,1.25
2023-05-07T06:29:21.726Z,1.30
2023-05-07T06:30:23.566Z,1.48
2023-05-07T06:31:31.767Z,1.27
2023-05-07T06:32:33.530Z,1.27
2023-05-07T06:33:36.412Z,1.15
2023-05-07T06:34:38.632Z,1.30
2023-05-07T06:35:42.732Z,1.35
2023-05-07T06:36:44.499Z,1.35
2023-05-07T06:37:47.297Z,1.65
2023-05-07T06:38:49.022Z,1.63
2023-05-07T06:39:51.657Z,1.42
2023-05-07T06:40:55.199Z,1.40
2023-05-07T06:41:57.976Z,1.30
2023-05-07T06:42:59.661Z,1.40
2023-05-07T06:44:02.277Z,1.30
2023-05-07T06:45:04.582Z,1.55
2023-05-07T06:46:07.333Z,1.58
2023-05-07T06:47:09.066Z,1.50
2023-05-07T06:48:12.482Z,1.25
2023-05-07T06:49:14.490Z,1.60
2023-05-07T06:50:18.008Z,1.45
2023-05-07T06:51:21.258Z,1.23
2023-05-07T06:52:23.959Z,1.50
2023-05-07T06:53:25.679Z,1.42
2023-05-07T06:54:28.357Z,1.30
2023-05-07T06:55:30.012Z,1.45
2023-05-07T06:56:32.748Z,1.40
2023-05-07T06:57:34.405Z,1.48
2023-05-07T06:58:37.152Z,1.58
2023-05-07T06:59:38.881Z,1.80
2023-05-07T07:00:41.809Z,1.50
2023-05-07T07:01:43.565Z,1.33
2023-05-07T07:02:46.285Z,1.30
2023-05-07T07:03:48.225Z,1.60
2023-05-07T07:04:51.012Z,1.50
2023-05-07T07:05:53.259Z,1.48
2023-05-07T07:06:58.138Z,1.50
2023-05-07T07:07:59.835Z,1.40
2023-05-07T07:09:02.633Z,1.30
2023-05-07T07:10:05.853Z,1.38
2023-05-07T07:11:08.662Z,1.40
2023-05-07T07:12:10.375Z,1.20
2023-05-07T07:13:13.146Z,1.52
2023-05-07T07:14:15.362Z,1.30
2023-05-07T07:15:18.381Z,1.10
2023-05-07T07:16:20.100Z,1.50
2023-05-07T07:17:22.964Z,1.45
2023-05-07T07:18:25.761Z,1.60
2023-05-07T07:19:27.524Z,1.35
2023-05-07T07:20:30.194Z,1.38
2023-05-07T07:21:32.086Z,1.40
2023-05-07T07:22:36.142Z,1.40
2023-05-07T07:23:37.877Z,1.58
2023-05-07T07:24:40.532Z,1.35
2023-05-07T07:25:42.223Z,1.48
2023-05-07T07:26:44.891Z,1.60
2023-05-07T07:27:46.582Z,1.70
2023-05-07T07:28:49.232Z,1.60
2023-05-07T07:29:51.276Z,1.50
2023-05-07T07:30:53.957Z,1.40
2023-05-07T07:31:55.856Z,1.50
2023-05-07T07:33:03.290Z,1.48
2023-05-07T07:34:05.125Z,1.50
2023-05-07T07:35:09.016Z,1.52
2023-05-07T07:36:11.733Z,1.10
2023-05-07T07:37:13.418Z,1.27
2023-05-07T07:38:17.498Z,1.50
2023-05-07T07:39:19.232Z,1.35
2023-05-07T07:40:22.040Z,1.48
2023-05-07T07:41:23.762Z,1.58
2023-05-07T07:42:26.493Z,1.80
2023-05-07T07:43:28.661Z,1.73
2023-05-07T07:44:31.368Z,1.30
2023-05-07T07:45:33.094Z,1.52
2023-05-07T07:46:35.847Z,1.58
2023-05-07T07:47:37.586Z,1.58
2023-05-07T07:48:40.351Z,1.70
2023-05-07T07:49:42.077Z,1.50
2023-05-07T07:50:46.120Z,1.52
2023-05-07T07:51:48.221Z,1.40
2023-05-07T07:52:51.229Z,1.55
2023-05-07T07:53:54.266Z,1.98
2023-05-07T07:54:56.950Z,1.50
2023-05-07T07:56:03.535Z,1.80
2023-05-07T07:57:07.698Z,1.52
2023-05-07T07:58:09.457Z,1.65
2023-05-07T07:59:12.235Z,1.60
2023-05-07T08:00:15.197Z,1.48
2023-05-07T08:01:18.155Z,1.50
2023-05-07T08:02:21.457Z,1.60
2023-05-07T08:03:23.821Z,1.60
2023-05-07T08:04:26.603Z,1.60
2023-05-07T08:05:28.460Z,1.92
2023-05-07T08:06:31.347Z,1.90
2023-05-07T08:07:34.102Z,1.70
2023-05-07T08:08:36.916Z,1.50
2023-05-07T08:09:40.331Z,1.45
2023-05-07T08:10:43.085Z,1.70
2023-05-07T08:11:44.784Z,1.58
2023-05-07T08:12:47.481Z,1.60
2023-05-07T08:13:49.295Z,1.92
2023-05-07T08:14:51.981Z,1.40
2023-05-07T08:15:53.678Z,1.70
2023-05-07T08:16:56.640Z,1.83
2023-05-07T08:17:58.999Z,1.60
2023-05-07T08:19:01.805Z,1.80
2023-05-07T08:20:03.992Z,1.80
2023-05-07T08:21:06.879Z,1.88
2023-05-07T08:22:08.739Z,1.70
2023-05-07T08:23:11.720Z,1.55
2023-05-07T08:24:13.477Z,1.52
2023-05-07T08:25:17.610Z,1.88
2023-05-07T08:26:19.338Z,1.95
2023-05-07T08:27:22.041Z,1.80
2023-05-07T08:28:25.749Z,1.70
2023-05-07T08:29:28.417Z,1.77
2023-05-07T08:30:31.134Z,1.77
2023-05-07T08:31:32.919Z,1.80
2023-05-07T08:32:35.633Z,2.10
2023-05-07T08:33:41.691Z,1.70
2023-05-07T08:34:44.443Z,1.83
2023-05-07T08:35:47.147Z,1.80
2023-05-07T08:36:49.492Z,1.50
2023-05-07T08:37:52.251Z,1.73
2023-05-07T08:38:54.240Z,2.15
2023-05-07T08:39:56.919Z,1.88
2023-05-07T08:40:59.969Z,1.90
2023-05-07T08:42:04.979Z,2.00
2023-05-07T08:43:07.090Z,1.92
2023-05-07T08:44:14.332Z,1.63
2023-05-07T08:45:16.507Z,2.25
2023-05-07T08:46:21.541Z,1.92
2023-05-07T08:47:24.405Z,2.25
2023-05-07T08:48:27.815Z,1.92
2023-05-07T08:49:29.838Z,1.58
2023-05-07T08:50:34.401Z,1.90
2023-05-07T08:51:36.718Z,1.85
2023-05-07T08:52:39.441Z,1.73
2023-05-07T08:53:41.772Z,2.10
2023-05-07T08:54:44.966Z,1.70
2023-05-07T08:55:47.332Z,1.75
2023-05-07T08:56:51.399Z,2.17
2023-05-07T08:57:54.130Z,1.80
2023-05-07T08:58:57.678Z,2.08
2023-05-07T08:59:59.528Z,2.08
2023-05-07T09:01:03.710Z,1.80
2023-05-07T09:02:08.540Z,1.77
2023-05-07T09:03:13.701Z,2.10
2023-05-07T09:04:15.897Z,1.77
2023-05-07T09:05:18.992Z,2.10
2023-05-07T09:06:20.731Z,2.10
2023-05-07T09:07:23.648Z,1.83
2023-05-07T09:08:26.726Z,1.90
2023-05-07T09:09:29.429Z,1.83
2023-05-07T09:10:32.281Z,2.05
2023-05-07T09:11:34.024Z,1.92
2023-05-07T09:12:38.219Z,1.77
2023-05-07T09:13:39.925Z,2.08
2023-05-07T09:14:42.596Z,2.00
2023-05-07T09:15:44.425Z,1.85
2023-05-07T09:16:48.604Z,2.10
2023-05-07T09:17:51.451Z,2.00
2023-05-07T09:18:54.369Z,1.90
2023-05-07T09:19:57.203Z,2.00
2023-05-07T09:20:58.965Z,1.90
2023-05-07T09:22:02.416Z,1.98
2023-05-07T09:23:04.251Z,2.35
2023-05-07T09:24:07.782Z,1.88
2023-05-07T09:25:10.529Z,1.95
2023-05-07T09:26:13.687Z,1.73
2023-05-07T09:27:16.646Z,2.00
2023-05-07T09:28:20.682Z,2.10
2023-05-07T09:29:22.451Z,2.00
2023-05-07T09:30:25.476Z,1.98
2023-05-07T09:31:27.288Z,2.13
2023-05-07T09:32:31.537Z,1.90
2023-05-07T09:33:33.332Z,2.03
2023-05-07T09:34:37.168Z,2.00
2023-05-07T09:35:38.944Z,1.60
2023-05-07T09:36:41.863Z,2.03
2023-05-07T09:37:43.709Z,1.83
2023-05-07T09:38:47.511Z,2.15
2023-05-07T09:39:50.820Z,2.03
2023-05-07T09:41:03.739Z,2.45
2023-05-07T09:42:05.838Z,2.20
2023-05-07T09:43:12.758Z,2.40
2023-05-07T09:44:16.189Z,2.13
2023-05-07T09:45:23.890Z,2.40
2023-05-07T09:46:29.332Z,1.90
2023-05-07T09:47:34.595Z,2.38
2023-05-07T09:48:38.829Z,1.88
2023-05-07T09:49:43.367Z,2.08
2023-05-07T09:50:50.300Z,2.30
2023-05-07T09:51:53.912Z,2.08
2023-05-07T09:52:56.336Z,2.20
2023-05-07T09:54:00.935Z,2.10
2023-05-07T09:55:04.536Z,2.50
2023-05-07T09:56:06.807Z,2.47
2023-05-07T09:57:09.774Z,2.00
2023-05-07T09:58:13.777Z,2.47
2023-05-07T09:59:18.860Z,2.13
2023-05-07T10:00:22.177Z,2.47
2023-05-07T10:01:27.111Z,2.50
2023-05-07T10:02:31.569Z,2.10
2023-05-07T10:03:35.979Z,1.90
2023-05-07T10:04:39.259Z,2.40
2023-05-07T10:05:41.417Z,2.17
2023-05-07T10:06:44.913Z,2.05
2023-05-07T10:07:47.366Z,2.00
2023-05-07T10:08:50.713Z,2.30
2023-05-07T10:09:54.033Z,2.40
2023-05-07T10:10:56.774Z,2.35
2023-05-07T10:11:59.503Z,2.42
2023-05-07T10:13:02.324Z,2.13
2023-05-07T10:14:06.773Z,2.03
2023-05-07T10:15:12.569Z,2.00
2023-05-07T10:16:15.811Z,2.22
2023-05-07T10:17:17.953Z,2.30
2023-05-07T10:18:23.537Z,1.77
2023-05-07T10:19:26.546Z,2.15
2023-05-07T10:20:28.355Z,2.15
2023-05-07T10:21:32.490Z,2.20
2023-05-07T10:22:39.597Z,2.10
2023-05-07T10:23:47.188Z,1.90
2023-05-07T10:24:50.258Z,2.10
2023-05-07T10:25:57.235Z,2.00
2023-05-07T10:27:03.929Z,2.03
2023-05-07T10:28:08.637Z,1.95
2023-05-07T10:29:14.718Z,2.10
2023-05-07T10:30:23.622Z,2.25
2023-05-07T10:31:47.080Z,2.17
2023-05-07T10:32:52.056Z,2.20
2023-05-07T10:33:56.888Z,1.98
2023-05-07T10:35:01.413Z,2.10
2023-05-07T10:36:05.622Z,2.40
2023-05-07T10:37:07.831Z,2.20
2023-05-07T10:38:11.031Z,1.90
2023-05-07T10:39:12.762Z,2.10
2023-05-07T10:40:15.746Z,2.42
2023-05-07T10:41:19.773Z,1.85
2023-05-07T10:42:22.550Z,1.90
2023-05-07T10:43:25.890Z,2.22
2023-05-07T10:44:28.957Z,2.25
2023-05-07T10:45:33.491Z,2.25
2023-05-07T10:46:36.631Z,2.10
2023-05-07T10:48:20.932Z,2.08
2023-05-07T10:49:31.314Z,2.25
2023-05-07T10:50:33.139Z,2.13
2023-05-07T10:51:36.596Z,2.33
2023-05-07T10:52:38.273Z,2.28
2023-05-07T10:53:41.023Z,2.08
2023-05-07T10:54:43.046Z,2.10
2023-05-07T10:55:46.070Z,2.08
2023-05-07T10:56:48.770Z,2.28
2023-05-07T10:57:51.471Z,2.20
2023-05-07T10:58:53.224Z,2.50
2023-05-07T10:59:57.969Z,2.22
2023-05-07T11:01:03.161Z,2.00
2023-05-07T11:02:07.375Z,2.15
2023-05-07T11:03:10.006Z,2.33
2023-05-07T11:04:18.305Z,2.20
2023-05-07T11:05:20.460Z,2.10
2023-05-07T11:06:23.346Z,2.08
2023-05-07T11:07:27.180Z,2.00
2023-05-07T11:08:57.028Z,2.15
2023-05-07T11:10:04.869Z,1.90
2023-05-07T11:11:07.714Z,2.10
2023-05-07T11:12:09.588Z,1.90
2023-05-07T11:13:12.556Z,2.13
2023-05-07T11:14:15.047Z,2.28
2023-05-07T11:15:36.176Z,1.85
2023-05-07T11:16:41.590Z,2.13
2023-05-07T11:17:56.794Z,2.25
2023-05-07T11:18:59.497Z,2.20
2023-05-07T11:20:02.311Z,1.95
2023-05-07T11:21:05.453Z,1.80
2023-05-07T11:22:38.694Z,1.80
2023-05-07T11:24:12.211Z,1.65
2023-05-07T11:25:19.136Z,1.88
2023-05-07T11:26:22.326Z,2.00
2023-05-07T11:27:25.739Z,1.98
2023-05-07T11:28:29.094Z,2.03
2023-05-07T11:29:35.084Z,1.85
2023-05-07T11:30:37.039Z,2.20
2023-05-07T11:31:41.204Z,1.70
2023-05-07T11:32:43.011Z,1.95
2023-05-07T11:33:46.023Z,1.83
2023-05-07T11:34:49.230Z,1.67
2023-05-07T11:35:51.705Z,1.50
2023-05-07T11:36:54.777Z,1.55
2023-05-07T11:37:59.368Z,1.48
2023-05-07T11:39:02.201Z,1.70
2023-05-07T11:40:05.018Z,1.83
2023-05-07T11:41:08.506Z,1.80
2023-05-07T11:42:27.433Z,1.70
2023-05-07T11:43:29.233Z,2.10
2023-05-07T11:44:45.202Z,1.85
2023-05-07T11:45:47.447Z,1.60
2023-05-07T11:46:52.075Z,1.63
2023-05-07T11:47:53.952Z,1.88
2023-05-07T11:48:56.870Z,1.75
2023-05-07T11:50:03.836Z,1.90
2023-05-07T11:51:09.785Z,1.70
2023-05-07T11:52:11.543Z,1.88
2023-05-07T11:53:14.430Z,2.22
2023-05-07T11:54:20.296Z,1.80
2023-05-07T11:55:22.919Z,1.60
2023-05-07T11:56:25.640Z,1.70
2023-05-07T11:57:29.531Z,1.70
2023-05-07T11:58:31.337Z,1.70
2023-05-07T11:59:40.984Z,1.52
2023-05-07T12:00:49.473Z,1.70
2023-05-07T12:01:53.552Z,1.60
2023-05-07T12:02:55.401Z,1.60
2023-05-07T12:03:58.283Z,1.73
2023-05-07T12:05:01.712Z,1.95
2023-05-07T12:06:05.353Z,1.70
2023-05-07T12:07:07.363Z,2.10
2023-05-07T12:08:10.167Z,1.75
2023-05-07T12:09:12.998Z,1.90
2023-05-07T12:10:15.153Z,2.20
2023-05-07T12:11:24.459Z,1.80
2023-05-07T12:12:27.959Z,2.00
2023-05-07T12:13:30.714Z,1.80
2023-05-07T12:14:33.697Z,1.70
2023-05-07T12:15:36.393Z,1.60
2023-05-07T12:16:40.710Z,1.80
2023-05-07T12:17:44.304Z,1.80
2023-05-07T12:18:47.484Z,1.95
2023-05-07T12:19:55.012Z,1.73
2023-05-07T12:20:56.877Z,1.77
2023-05-07T12:21:59.740Z,1.80
2023-05-07T12:23:02.411Z,1.80
2023-05-07T12:24:05.874Z,1.70
2023-05-07T12:25:08.490Z,1.88
2023-05-07T12:26:11.707Z,1.80
2023-05-07T12:27:14.087Z,1.90
2023-05-07T12:28:17.449Z,2.22
2023-05-07T12:29:23.797Z,1.80
2023-05-07T12:30:25.556Z,2.10
2023-05-07T12:31:28.384Z,1.70
2023-05-07T12:32:30.549Z,1.48
2023-05-07T12:33:34.801Z,1.50
2023-05-07T12:34:36.500Z,1.75
2023-05-07T12:35:41.783Z,1.50
2023-05-07T12:36:43.623Z,1.85
2023-05-07T12:37:46.515Z,1.70
2023-05-07T12:38:50.840Z,1.73
2023-05-07T12:40:07.150Z,1.75
2023-05-07T12:41:11.054Z,1.50
2023-05-07T12:42:16.481Z,1.67
2023-05-07T12:43:19.788Z,1.80
2023-05-07T12:44:24.532Z,1.52
2023-05-07T12:45:27.393Z,1.90
2023-05-07T12:46:30.316Z,1.73
2023-05-07T12:47:32.113Z,1.52
2023-05-07T12:48:38.468Z,1.50
2023-05-07T12:49:41.072Z,1.50
2023-05-07T12:50:43.995Z,1.70
2023-05-07T12:51:45.795Z,1.35
2023-05-07T12:52:50.202Z,1.60
2023-05-07T12:53:52.861Z,1.42
2023-05-07T12:54:54.600Z,1.50
2023-05-07T12:55:58.638Z,1.48
2023-05-07T12:57:03.957Z,1.23
2023-05-07T12:58:06.726Z,1.50
2023-05-07T12:59:09.378Z,1.70
2023-05-07T13:00:12.135Z,1.50
2023-05-07T13:01:16.616Z,1.52
2023-05-07T13:02:18.423Z,1.30
2023-05-07T13:03:24.114Z,1.50
2023-05-07T13:04:27.264Z,1.30
2023-05-07T13:05:29.933Z,1.42
2023-05-07T13:06:33.111Z,1.25
2023-05-07T13:07:34.889Z,1.50
2023-05-07T13:08:41.332Z,1.42
2023-05-07T13:09:43.309Z,1.30
2023-05-07T13:10:46.026Z,1.17
2023-05-07T13:11:47.713Z,1.10
2023-05-07T13:12:50.536Z,1.20
2023-05-07T13:13:53.281Z,1.33
2023-05-07T13:14:55.000Z,1.48
2023-05-07T13:15:57.779Z,1.10
2023-05-07T13:16:59.563Z,1.10
2023-05-07T13:18:02.412Z,1.10
2023-05-07T13:19:04.339Z,1.08
2023-05-07T13:20:10.928Z,1.10
2023-05-07T13:21:14.316Z,1.00
2023-05-07T13:22:17.268Z,1.30
2023-05-07T13:23:19.050Z,1.42
2023-05-07T13:24:21.815Z,1.25
2023-05-07T13:25:24.513Z,1.30
2023-05-07T13:26:27.356Z,1.30
2023-05-07T13:27:31.738Z,1.20
2023-05-07T13:28:34.441Z,1.63
2023-05-07T13:29:36.592Z,1.35
2023-05-07T13:30:39.330Z,1.60
2023-05-07T13:31:43.935Z,1.60
2023-05-07T13:32:48.897Z,1.67
2023-05-07T13:33:50.649Z,1.90
2023-05-07T13:34:53.348Z,1.80
2023-05-07T13:35:58.866Z,1.58
2023-05-07T13:37:00.577Z,1.50
2023-05-07T13:38:03.351Z,1.30
2023-05-07T13:39:05.176Z,1.55
2023-05-07T13:40:09.230Z,1.40
2023-05-07T13:41:11.105Z,1.60
2023-05-07T13:42:13.762Z,1.30
2023-05-07T13:43:18.494Z,1.60
2023-05-07T13:44:20.199Z,1.40
2023-05-07T13:45:22.961Z,1.20
2023-05-07T13:46:24.889Z,1.40
2023-05-07T13:47:29.682Z,1.42
2023-05-07T13:48:31.358Z,1.27
2023-05-07T13:49:34.071Z,1.30
2023-05-07T13:50:36.793Z,1.25
2023-05-07T13:51:39.823Z,1.17
2023-05-07T13:52:46.434Z,1.30
2023-05-07T13:53:48.906Z,1.48
2023-05-07T13:54:53.190Z,1.63
2023-05-07T13:55:55.953Z,1.27
2023-05-07T13:56:57.625Z,1.50
2023-05-07T13:58:02.044Z,1.10
2023-05-07T13:59:03.723Z,1.13
2023-05-07T14:00:07.759Z,0.90
2023-05-07T14:01:09.525Z,0.98
2023-05-07T14:02:12.332Z,1.30